createdAt,value
2019-02-15T00:00:03.231Z,1017.76
2019-02-15T00:05:09.205Z,1017.7
2019-02-15T00:10:05.835Z,1017.73
2019-02-15T00:15:07.870Z,1017.7
2019-02-15T00:20:07.649Z,1017.64
2019-02-15T00:25:06.705Z,1017.7
2019-02-15T00:30:03.138Z,1017.58
2019-02-15T00:35:07.206Z,1017.56
2019-02-15T00:40:05.987Z,1017.65
2019-02-15T00:45:03.364Z,1017.72
2019-02-15T00:50:07.466Z,1017.69
2019-02-15T00:55:06.828Z,1017.73
2019-02-15T01:00:03.301Z,1017.77
2019-02-15T01:05:07.361Z,1017.75
2019-02-15T01:10:07.338Z,1017.74
2019-02-15T01:15:03.337Z,1017.73
2019-02-15T01:20:07.432Z,1017.67
2019-02-15T01:25:06.587Z,1017.6
2019-02-15T01:30:02.997Z,1017.55
2019-02-15T01:35:07.159Z,1017.49
2019-02-15T01:40:05.696Z,1017.49
2019-02-15T01:45:03.318Z,1017.38
2019-02-15T01:50:04.043Z,1017.34
2019-02-15T01:55:03.778Z,1017.28
2019-02-15T02:00:03.434Z,1017.23
2019-02-15T02:05:03.530Z,1017.18
2019-02-15T02:10:04.201Z,1017.11
2019-02-15T02:15:03.775Z,1017.08
2019-02-15T02:20:06.923Z,1017.12
2019-02-15T02:25:11.006Z,1017.02
2019-02-15T02:30:07.293Z,1017.02
2019-02-15T02:35:05.732Z,1016.96
2019-02-15T02:40:07.365Z,1016.91
2019-02-15T02:45:03.909Z,1016.9
2019-02-15T02:50:07.273Z,1016.91
2019-02-15T02:55:07.812Z,1017.01
2019-02-15T03:00:04.260Z,1016.94
2019-02-15T03:05:06.734Z,1016.9
2019-02-15T03:10:09.311Z,1016.88
2019-02-15T03:15:04.706Z,1016.85
2019-02-15T03:20:12.811Z,1016.83
2019-02-15T03:25:07.536Z,1016.79
2019-02-15T03:30:11.181Z,1016.7
2019-02-15T03:35:12.834Z,1016.81
2019-02-15T03:40:10.792Z,1016.81
2019-02-15T03:45:12.094Z,1016.77
2019-02-15T03:50:08.311Z,1016.74
2019-02-15T03:55:08.998Z,1016.76
2019-02-15T04:00:07.401Z,1016.77
2019-02-15T04:05:07.177Z,1016.74
2019-02-15T04:10:06.499Z,1016.71
2019-02-15T04:15:06.207Z,1016.76
2019-02-15T04:20:06.514Z,1016.78
2019-02-15T04:25:07.674Z,1016.84
2019-02-15T04:30:03.105Z,1016.81
2019-02-15T04:35:07.183Z,1016.81
2019-02-15T04:40:08.170Z,1016.82
2019-02-15T04:45:02.762Z,1016.76
2019-02-15T04:50:07.315Z,1016.79
2019-02-15T04:55:08.702Z,1016.78
2019-02-15T05:00:03.148Z,1016.71
2019-02-15T05:05:08.418Z,1016.69
2019-02-15T05:10:09.390Z,1016.74
2019-02-15T05:15:04.166Z,1016.67
2019-02-15T05:20:08.837Z,1016.63
2019-02-15T05:25:08.223Z,1016.6
2019-02-15T05:30:02.706Z,1016.53
2019-02-15T05:35:08.287Z,1016.56
2019-02-15T05:40:07.799Z,1016.54
2019-02-15T05:45:05.089Z,1016.52
2019-02-15T05:50:08.949Z,1016.47
2019-02-15T05:55:08.249Z,1016.53
2019-02-15T06:00:02.812Z,1016.55
2019-02-15T06:05:07.996Z,1016.6
2019-02-15T06:10:07.772Z,1016.63
2019-02-15T06:15:16.103Z,1016.6
2019-02-15T06:20:05.858Z,1016.66
2019-02-15T06:25:07.802Z,1016.64
2019-02-15T06:30:03.310Z,1016.67
2019-02-15T06:35:06.196Z,1016.72
2019-02-15T06:40:07.089Z,1016.74
2019-02-15T06:45:02.561Z,1016.86
2019-02-15T06:50:07.109Z,1016.86
2019-02-15T06:55:07.974Z,1016.92
2019-02-15T07:00:03.370Z,1016.95
2019-02-15T07:05:05.575Z,1017.01
2019-02-15T07:10:07.106Z,1017.03
2019-02-15T07:15:02.640Z,1017.01
2019-02-15T07:20:05.795Z,1016.99
2019-02-15T07:25:04.877Z,1017.01
2019-02-15T07:30:03.258Z,1017.05
2019-02-15T07:35:03.991Z,1017.07
2019-02-15T07:40:04.600Z,1017.08
2019-02-15T07:45:03.076Z,1017.11
2019-02-15T07:50:05.130Z,1017.09
2019-02-15T07:55:07.401Z,1017.07
2019-02-15T08:00:04.336Z,1017.1
2019-02-15T08:05:06.719Z,1016.99
2019-02-15T08:10:07.956Z,1017.03
2019-02-15T08:15:04.585Z,1016.98
2019-02-15T08:20:07.919Z,1016.98
2019-02-15T08:25:10.325Z,1016.91
2019-02-15T08:30:03.884Z,1016.93
2019-02-15T08:35:07.294Z,1016.96
2019-02-15T08:40:08.822Z,1016.93
2019-02-15T08:45:06.486Z,1016.94
2019-02-15T08:50:09.150Z,1016.85
2019-02-15T08:55:07.042Z,1016.84
2019-02-15T09:00:03.645Z,1016.82
2019-02-15T09:05:09.451Z,1016.76
2019-02-15T09:10:07.509Z,1016.73
2019-02-15T09:15:04.112Z,1016.73
2019-02-15T09:20:07.032Z,1016.71
2019-02-15T09:25:06.797Z,1016.68
2019-02-15T09:30:04.261Z,1016.64
2019-02-15T09:35:05.930Z,1016.56
2019-02-15T09:40:07.353Z,1016.5
2019-02-15T09:45:03.990Z,1016.42
2019-02-15T09:50:09.670Z,1016.47
2019-02-15T09:55:06.732Z,1016.38
2019-02-15T10:00:04.377Z,1016.37
2019-02-15T10:05:07.117Z,1016.33
2019-02-15T10:10:06.691Z,1016.35
2019-02-15T10:15:04.293Z,1016.32
2019-02-15T10:20:06.635Z,1016.36
2019-02-15T10:25:09.672Z,1016.37
2019-02-15T10:30:04.339Z,1016.44
2019-02-15T10:35:07.726Z,1016.42
2019-02-15T10:40:09.318Z,1016.38
2019-02-15T10:45:07.076Z,1016.4
2019-02-15T10:50:09.105Z,1016.29
2019-02-15T10:55:07.135Z,1016.22
2019-02-15T11:00:03.769Z,1016.2
2019-02-15T11:05:09.775Z,1016.23
2019-02-15T11:10:03.672Z,1016.2
2019-02-15T11:15:05.172Z,1016.11
2019-02-15T11:20:07.134Z,1016.15
2019-02-15T11:25:07.742Z,1016.05
2019-02-15T11:30:05.013Z,1016.06
2019-02-15T11:35:07.185Z,1016.03
2019-02-15T11:40:06.026Z,1015.96
2019-02-15T11:45:04.013Z,1015.95
2019-02-15T11:50:05.615Z,1015.83
2019-02-15T11:55:07.073Z,1015.75
2019-02-15T12:00:03.721Z,1015.68
2019-02-15T12:05:07.335Z,1015.55
2019-02-15T12:10:06.877Z,1015.52
2019-02-15T12:15:03.560Z,1015.43
2019-02-15T12:20:07.211Z,1015.34
2019-02-15T12:25:07.124Z,1015.34
2019-02-15T12:30:02.620Z,1015.22
2019-02-15T12:35:07.315Z,1015.19
2019-02-15T12:40:09.070Z,1015.16
2019-02-15T12:45:03.723Z,1015.11
2019-02-15T12:50:09.457Z,1015.02
2019-02-15T12:55:07.469Z,1015.02
2019-02-15T13:00:03.021Z,1014.96
2019-02-15T13:05:07.258Z,1014.84
2019-02-15T13:10:05.890Z,1014.79
2019-02-15T13:15:03.333Z,1014.69
2019-02-15T13:20:06.096Z,1014.64
2019-02-15T13:25:07.058Z,1014.55
2019-02-15T13:30:02.590Z,1014.47
2019-02-15T13:35:07.443Z,1014.38
2019-02-15T13:40:09.026Z,1014.33
2019-02-15T13:45:02.560Z,1014.2
2019-02-15T13:50:06.946Z,1014.11
2019-02-15T13:55:09.563Z,1014.06
2019-02-15T14:00:03.088Z,1014.02
2019-02-15T14:05:09.876Z,1013.96
2019-02-15T14:10:08.875Z,1013.91
2019-02-15T14:15:03.276Z,1013.78
2019-02-15T14:20:08.852Z,1013.79
2019-02-15T14:25:04.796Z,1013.74
2019-02-15T14:30:03.200Z,1013.68
2019-02-15T14:35:04.073Z,1013.67
2019-02-15T14:40:03.887Z,1013.59
2019-02-15T14:45:03.461Z,1013.5
2019-02-15T14:50:04.321Z,1013.46
2019-02-15T14:55:04.082Z,1013.47
2019-02-15T15:00:02.641Z,1013.44
2019-02-15T15:05:04.629Z,1013.38
2019-02-15T15:10:08.365Z,1013.34
2019-02-15T15:15:04.045Z,1013.22
2019-02-15T15:20:07.700Z,1013.17
2019-02-15T15:25:09.766Z,1013.15
2019-02-15T15:30:04.278Z,1013.11
2019-02-15T15:35:09.717Z,1013.11
2019-02-15T15:40:07.541Z,1013.04
2019-02-15T15:45:04.188Z,1012.96
2019-02-15T15:50:07.532Z,1012.88
2019-02-15T15:55:06.385Z,1012.89
2019-02-15T16:00:03.913Z,1012.87
2019-02-15T16:05:06.737Z,1012.84
2019-02-15T16:10:05.119Z,1012.82
2019-02-15T16:15:04.480Z,1012.76
2019-02-15T16:20:07.507Z,1012.8
2019-02-15T16:25:09.671Z,1012.84
2019-02-15T16:30:06.614Z,1012.85
2019-02-15T16:35:09.748Z,1012.79
2019-02-15T16:40:07.626Z,1012.74
2019-02-15T16:45:04.082Z,1012.8
2019-02-15T16:50:07.031Z,1012.76
2019-02-15T16:55:15.873Z,1012.8
2019-02-15T17:00:04.489Z,1012.77
2019-02-15T17:05:07.720Z,1012.83
2019-02-15T17:10:08.266Z,1012.87
2019-02-15T17:15:06.121Z,1012.89
2019-02-15T17:20:06.370Z,1012.88
2019-02-15T17:25:07.472Z,1012.87
2019-02-15T17:30:05.018Z,1012.87
2019-02-15T17:35:06.356Z,1012.87
2019-02-15T17:40:06.834Z,1012.82
2019-02-15T17:45:03.291Z,1012.76
2019-02-15T17:50:07.051Z,1012.68
2019-02-15T17:55:07.533Z,1012.64
2019-02-15T18:00:03.042Z,1012.64
2019-02-15T18:05:06.797Z,1012.56
2019-02-15T18:10:09.993Z,1012.47
2019-02-15T18:15:04.726Z,1012.44
2019-02-15T18:20:08.616Z,1012.52
2019-02-15T18:25:08.697Z,1012.45
2019-02-15T18:30:03.156Z,1012.45
2019-02-15T18:35:08.831Z,1012.4
2019-02-15T18:40:07.722Z,1012.41
2019-02-15T18:45:03.182Z,1012.39
2019-02-15T18:50:07.794Z,1012.33
2019-02-15T18:55:07.849Z,1012.37
2019-02-15T19:00:03.303Z,1012.27
2019-02-15T19:05:07.424Z,1012.28
2019-02-15T19:10:07.669Z,1012.29
2019-02-15T19:15:04.853Z,1012.23
2019-02-15T19:20:07.667Z,1012.16
2019-02-15T19:25:08.192Z,1012.15
2019-02-15T19:30:02.762Z,1012.09
2019-02-15T19:35:07.633Z,1012.1
2019-02-15T19:40:06.734Z,1012.05
2019-02-15T19:45:03.249Z,1012.01
2019-02-15T19:50:06.829Z,1011.98
2019-02-15T19:55:06.753Z,1012.01
2019-02-15T20:00:03.177Z,1011.97
2019-02-15T20:05:05.777Z,1011.92
2019-02-15T20:10:05.554Z,1011.92
2019-02-15T20:15:03.055Z,1011.92
2019-02-15T20:20:05.521Z,1011.93
2019-02-15T20:25:04.652Z,1011.91
2019-02-15T20:30:04.280Z,1011.93
2019-02-15T20:35:04.038Z,1011.9
2019-02-15T20:40:03.970Z,1011.96
2019-02-15T20:45:03.367Z,1011.98
2019-02-15T20:50:04.375Z,1012.01
2019-02-15T20:55:05.475Z,1011.9
2019-02-15T21:00:03.551Z,1011.88
2019-02-15T21:05:05.753Z,1011.95
2019-02-15T21:10:06.891Z,1011.93
2019-02-15T21:15:03.707Z,1011.98
2019-02-15T21:20:10.515Z,1011.99
2019-02-15T21:25:07.644Z,1011.97
2019-02-15T21:30:03.928Z,1011.98
2019-02-15T21:35:07.281Z,1011.95
2019-02-15T21:40:06.892Z,1011.95
2019-02-15T21:45:04.434Z,1011.87
2019-02-15T21:50:06.498Z,1011.89
2019-02-15T21:55:08.374Z,1011.8
2019-02-15T22:00:03.848Z,1011.86
2019-02-15T22:05:07.546Z,1011.75
2019-02-15T22:10:06.998Z,1011.72
2019-02-15T22:15:03.633Z,1011.66
2019-02-15T22:20:06.286Z,1011.66
2019-02-15T22:25:07.311Z,1011.71
2019-02-15T22:30:03.704Z,1011.72
2019-02-15T22:35:06.247Z,1011.7
2019-02-15T22:40:07.066Z,1011.73
2019-02-15T22:45:03.579Z,1011.85
2019-02-15T22:50:06.121Z,1011.87
2019-02-15T22:55:07.121Z,1011.79
2019-02-15T23:00:13.266Z,1011.81
2019-02-15T23:05:07.325Z,1011.78
2019-02-15T23:10:07.441Z,1011.67
2019-02-15T23:15:04.048Z,1011.68
2019-02-15T23:20:06.560Z,1011.64
2019-02-15T23:25:10.280Z,1011.59
2019-02-15T23:30:03.857Z,1011.52
2019-02-15T23:35:07.224Z,1011.55
2019-02-15T23:40:08.861Z,1011.54
2019-02-15T23:45:04.328Z,1011.55
2019-02-15T23:50:07.393Z,1011.53
2019-02-15T23:55:09.171Z,1011.54
